Date,TemperatureHighF,TemperatureAvgF,TemperatureLowF,DewpointHighF,DewpointAvgF,DewpointLowF,HumidityHigh,HumidityAvg,HumidityLow,PressureMaxIn,PressureMinIn,WindSpeedMaxMPH,WindSpeedAvgMPH,GustSpeedMaxMPH,PrecipitationSumIn
2014-1-1,80,75,72,79,74,71,98,98,96,30.07,29.91,11,5,0,0.06
2014-1-2,85,76,69,80,38,-32,98,64,1,29.90,29.73,8,3,0,0.00
2014-1-3,72,62,56,72,17,-43,98,55,1,30.09,29.75,8,3,0,0.00
2014-1-4,73,69,57,72,42,-38,98,72,1,30.06,29.93,8,4,0,0.00
2014-1-5,80,73,68,79,72,68,98,98,98,29.93,29.81,7,2,0,0.85
2014-1-6,82,71,56,80,38,-43,98,66,1,30.09,29.83,8,3,0,0.06
2014-1-7,57,52,47,55,5,-49,98,48,1,30.22,30.09,9,4,0,0.00
2014-1-8,70,62,50,70,62,50,98,98,98,30.22,30.11,13,6,0,0.04
2014-1-9,75,72,70,74,71,69,98,98,98,30.12,29.99,15,7,0,0.17
2014-1-10,80,74,68,79,73,68,98,98,98,30.06,29.92,12,4,0,0.26
2014-1-11,85,77,71,82,55,-29,98,79,1,29.98,29.83,10,2,0,0.00
2014-1-12,76,70,61,72,28,-38,98,60,1,30.04,29.88,7,2,0,0.00
2014-1-13,80,71,60,77,54,-30,98,81,1,30.04,29.90,8,2,0,0.04
2014-1-14,82,74,68,80,63,-31,98,87,1,29.90,29.79,7,2,0,0.01
2014-1-15,69,64,58,69,39,-39,98,74,1,29.91,29.80,5,2,0,0.37
2014-1-16,60,55,46,59,20,-49,98,62,1,30.04,29.82,9,3,0,0.00
2014-1-17,65,53,40,59,-2,-51,98,38,1,30.12,29.99,4,1,0,0.03
2014-1-18,67,54,45,65,6,-50,98,49,1,30.14,30.03,6,1,0,0.00
2014-1-19,69,54,38,62,-14,-53,98,30,1,30.18,30.03,7,1,0,0.00
2014-1-20,76,63,53,75,49,-37,98,84,1,30.08,29.91,4,1,0,0.02
2014-1-21,73,65,59,70,49,-36,98,83,1,29.93,29.74,7,3,0,0.00
2014-1-22,62,56,47,61,8,-49,98,50,1,30.06,29.76,7,3,0,0.00
2014-1-23,68,55,41,61,2,-52,98,45,1,30.19,30.05,10,2,0,0.00
2014-1-24,68,59,54,60,25,-42,98,65,1,30.29,30.12,9,3,0,0.02
2014-1-25,76,62,51,74,36,-36,98,73,1,30.11,29.92,6,1,0,0.00
2014-1-26,78,66,54,77,42,-36,98,74,1,29.98,29.85,8,1,0,0.00
2014-1-27,84,71,59,84,50,-33,98,78,1,29.91,29.79,6,1,0,0.00
2014-1-28,82,70,60,77,44,-30,98,75,1,29.96,29.83,9,1,0,0.00
2014-1-29,74,66,63,74,66,62,98,98,98,29.95,29.85,8,2,0,0.14
2014-1-30,67,65,63,66,64,62,98,98,98,29.99,29.89,7,2,0,2.93
2014-1-31,83,74,65,81,71,-28,98,96,1,29.97,29.87,6,2,0,0.55
2014-2-1,82,75,69,80,56,-30,98,80,1,30.02,29.92,9,2,0,0.00
2014-2-2,80,75,68,78,50,-30,98,74,1,30.03,29.93,10,3,0,0.00
2014-2-3,83,76,72,80,70,-28,98,89,1,29.98,29.89,11,3,0,0.01
2014-2-4,81,76,72,79,54,-30,98,76,1,30.01,29.91,12,4,0,0.00
2014-2-5,83,76,72,81,66,-28,98,89,1,29.96,29.86,6,2,0,0.79
2014-2-6,81,75,72,81,75,71,98,98,98,29.99,29.89,8,2,0,0.00
2014-2-7,82,72,66,76,54,-30,98,81,1,30.02,29.92,9,2,0,0.00
2014-2-8,85,74,69,78,46,-29,98,73,1,29.98,29.86,6,2,0,0.00
2014-2-9,77,69,64,72,40,-36,98,69,1,29.97,29.86,7,2,0,0.00
2014-2-10,78,70,63,70,21,-35,98,52,1,29.98,29.86,10,2,0,0.00
2014-2-11,84,73,65,84,41,-31,98,69,1,29.95,29.83,9,2,0,0.00
2014-2-12,82,72,63,78,34,-31,98,62,1,29.91,29.69,11,3,0,0.44
2014-2-13,72,66,55,70,14,-43,98,47,1,29.87,29.60,9,4,0,0.01
2014-2-14,70,58,46,64,18,-45,98,54,1,29.99,29.85,6,2,0,0.04
2014-2-15,78,65,53,78,34,-40,98,68,1,30.01,29.86,8,3,0,0.00
2014-2-16,76,62,49,75,14,-47,98,48,1,30.08,29.97,7,1,0,0.00
2014-2-17,76,66,56,76,34,-39,98,66,1,30.11,30.02,8,2,0,0.05
2014-2-18,78,68,59,77,49,-36,98,78,1,30.11,30.02,8,2,0,0.02
2014-2-19,79,70,62,72,24,-34,98,54,1,30.07,29.94,11,2,0,0.00
2014-2-20,80,73,64,76,34,-31,98,62,1,30.05,29.95,11,4,0,0.00
2014-2-21,84,78,74,80,50,-29,98,73,1,29.98,29.89,11,4,0,0.03
2014-2-22,86,76,70,80,40,-30,98,65,1,29.99,29.86,7,2,0,0.12
2014-2-23,84,76,70,79,47,-30,98,72,1,29.96,29.85,9,2,0,0.00
2014-2-24,86,77,69,83,39,-30,98,63,1,29.91,29.82,5,1,0,0.03
2014-2-25,83,75,70,81,51,-31,98,76,1,29.90,29.79,5,1,0,0.00
2014-2-26,86,75,68,85,59,-32,98,83,1,29.83,29.62,8,3,0,0.00
2014-2-27,79,72,65,73,29,-34,98,58,1,29.81,29.62,5,2,0,0.00
2014-2-28,72,66,60,70,34,-39,98,66,1,29.95,29.75,5,2,0,0.22
2014-3-1,80,68,59,79,57,-35,98,86,1,30.04,29.92,9,2,0,0.00
2014-3-2,78,70,62,77,35,-35,98,65,1,30.07,29.94,14,3,0,0.00
2014-3-3,84,72,63,83,40,-35,98,66,1,29.95,29.84,6,1,0,0.05
2014-3-4,79,71,63,73,29,-32,98,60,1,29.94,29.83,8,2,0,0.00
2014-3-5,84,74,66,83,39,-30,98,67,1,29.91,29.79,7,2,0,0.00
2014-3-6,85,73,68,80,56,-28,98,82,1,29.87,29.63,9,3,0,0.49
2014-3-7,78,71,61,78,46,-39,98,72,1,29.90,29.65,8,4,0,0.02
2014-3-8,74,63,53,73,33,-42,98,66,1,30.03,29.89,8,2,0,0.00
2014-3-9,77,69,63,72,27,-34,98,58,1,30.05,29.94,10,2,0,0.00
2014-3-10,83,73,64,82,44,-35,98,69,1,29.99,29.82,5,1,0,0.04
2014-3-11,84,72,61,83,37,-35,98,65,1,29.89,29.72,7,2,0,0.00
2014-3-12,86,76,69,85,50,-32,98,73,1,29.76,29.61,8,3,0,0.00
2014-3-13,74,68,58,74,33,-42,98,59,1,30.05,29.71,9,4,0,0.00
2014-3-14,71,64,54,71,30,-43,98,63,1,30.14,30.03,14,4,0,0.05
2014-3-15,78,69,61,78,46,-36,98,76,1,30.05,29.91,8,2,0,0.00
2014-3-16,81,73,63,78,12,-33,98,42,1,29.91,29.68,16,4,0,0.00
2014-3-17,86,78,71,85,44,-29,98,67,1,29.71,29.58,10,4,0,0.00
2014-3-18,79,74,65,78,56,-35,98,81,1,29.88,29.54,17,4,0,0.15
2014-3-19,80,72,63,73,19,-34,98,49,1,29.94,29.84,9,3,0,0.00
2014-3-20,80,74,66,77,42,-30,98,67,1,29.92,29.82,11,3,0,0.00
2014-3-21,82,74,65,78,44,-30,98,70,1,29.93,29.82,14,4,0,0.00
2014-3-22,84,76,72,80,70,-29,98,93,1,29.95,29.83,9,3,0,0.02
2014-3-23,89,77,68,88,60,-30,98,81,1,29.93,29.81,6,2,0,0.00
2014-3-24,76,72,67,75,66,-33,98,93,1,29.92,29.77,5,2,0,0.62
2014-3-25,80,71,63,77,52,-39,98,78,1,29.87,29.69,7,3,0,0.51
2014-3-26,66,60,53,66,30,-42,98,67,1,30.14,29.88,11,4,0,0.00
2014-3-27,73,68,57,72,-3,-39,98,31,1,30.19,30.06,15,6,0,0.00
2014-3-28,80,75,70,75,-2,-34,98,27,1,30.07,29.91,14,6,0,0.00
2014-3-29,83,76,69,82,72,-27,98,93,1,29.95,29.76,11,4,0,0.79
2014-3-30,78,71,60,78,30,-39,98,58,1,29.94,29.76,7,2,0,0.00
2014-3-31,77,67,56,77,34,-42,98,66,1,30.02,29.93,7,2,0,0.04
2014-4-1,77,69,61,76,58,-36,98,85,1,30.05,29.96,10,3,0,0.00
2014-4-2,78,70,62,78,48,-35,98,75,1,30.06,29.98,10,3,0,0.00
2014-4-3,80,72,64,74,15,-33,98,45,1,30.03,29.93,10,3,0,0.00
2014-4-4,82,74,66,81,47,-32,98,71,1,29.96,29.86,9,3,0,0.03
2014-4-5,85,76,67,84,56,-32,98,80,1,29.93,29.83,8,2,0,0.00
2014-4-6,86,76,68,85,58,-31,98,81,1,29.90,29.80,9,3,0,0.00
2014-4-7,87,80,74,81,31,-28,98,54,1,29.85,29.73,9,4,0,0.01
2014-4-8,89,78,69,89,63,-28,98,85,1,29.80,29.60,16,5,0,0.26
2014-4-9,78,71,64,77,37,-37,98,62,1,30.02,29.73,9,3,0,0.00
2014-4-10,77,68,60,75,42,-39,98,66,1,30.13,30.01,12,4,0,0.00
2014-4-11,76,70,63,74,51,-32,98,80,1,30.10,29.99,11,2,0,0.06
2014-4-12,80,74,68,80,40,-32,98,64,1,30.05,29.95,13,5,0,0.00
2014-4-13,79,76,73,78,75,72,98,98,98,29.96,29.85,15,8,0,0.09
2014-4-14,86,79,72,81,47,-29,98,69,1,29.87,29.77,8,3,0,0.02
2014-4-15,88,80,74,84,59,-28,98,79,1,29.80,29.69,8,2,0,0.21
2014-4-16,78,75,70,78,72,26,98,93,15,29.95,29.78,10,4,0,0.13
2014-4-17,82,78,75,82,77,75,98,98,98,30.01,29.90,16,6,0,0.23
2014-4-18,85,79,76,80,46,-29,98,67,1,29.96,29.81,10,5,0,0.10
2014-4-19,89,78,68,82,36,-34,98,60,1,29.85,29.73,7,3,0,0.33